createdAt,value
2019-04-21T00:01:24.394Z,71.60
2019-04-21T00:04:09.495Z,78.25
2019-04-21T00:07:01.209Z,76.60
2019-04-21T00:09:32.585Z,78.50
2019-04-21T00:12:02.434Z,80.75
2019-04-21T00:14:30.252Z,81.75
2019-04-21T00:17:03.101Z,84.50
2019-04-21T00:19:34.940Z,82.25
2019-04-21T00:22:19.482Z,81.00
2019-04-21T00:24:58.372Z,86.00
2019-04-21T00:27:36.887Z,81.75
2019-04-21T00:30:15.764Z,99.50
2019-04-21T00:32:39.300Z,93.00
2019-04-21T00:35:11.789Z,87.50
2019-04-21T00:38:00.862Z,87.50
2019-04-21T00:40:41.443Z,88.00
2019-04-21T00:43:08.958Z,78.00
2019-04-21T00:45:39.314Z,82.75
2019-04-21T00:48:25.763Z,80.60
2019-04-21T00:51:19.838Z,84.50
2019-04-21T00:53:43.852Z,85.00
2019-04-21T00:56:18.170Z,84.25
2019-04-21T00:58:48.714Z,80.25
2019-04-21T01:01:21.977Z,88.50
2019-04-21T01:03:57.800Z,86.75
2019-04-21T01:06:35.190Z,85.50
2019-04-21T01:09:07.950Z,85.50
2019-04-21T01:11:44.614Z,89.25
2019-04-21T01:14:31.089Z,87.20
2019-04-21T01:17:00.701Z,92.50
2019-04-21T01:19:26.992Z,93.00
2019-04-21T01:21:44.188Z,87.00
2019-04-21T01:24:24.533Z,92.20
2019-04-21T01:27:04.727Z,94.50
2019-04-21T01:29:58.453Z,92.50
2019-04-21T01:32:25.346Z,94.50
2019-04-21T01:35:02.373Z,99.00
2019-04-21T01:37:44.070Z,95.25
2019-04-21T01:40:19.104Z,90.25
2019-04-21T01:42:55.664Z,94.75
2019-04-21T01:45:31.894Z,93.75
2019-04-21T01:48:05.818Z,99.25
2019-04-21T01:50:43.889Z,93.00
2019-04-21T01:53:24.178Z,94.00
2019-04-21T01:55:54.527Z,95.60
2019-04-21T01:58:22.982Z,98.60
2019-04-21T02:01:01.050Z,95.60
2019-04-21T02:03:52.570Z,95.00
2019-04-21T02:06:22.799Z,96.25
2019-04-21T02:08:52.555Z,96.25
2019-04-21T02:11:31.314Z,94.50
2019-04-21T02:14:29.860Z,95.00
2019-04-21T02:16:40.709Z,94.25
2019-04-21T02:19:13.869Z,93.50
2019-04-21T02:21:43.281Z,96.75
2019-04-21T02:24:35.186Z,95.25
2019-04-21T02:27:07.094Z,100.00
2019-04-21T02:29:41.287Z,98.25
2019-04-21T02:35:08.400Z,96.25
2019-04-21T02:37:40.326Z,97.00
2019-04-21T02:42:46.340Z,96.50
2019-04-21T02:45:28.431Z,97.25
2019-04-21T02:50:33.578Z,99.60
2019-04-21T02:53:09.515Z,99.75
2019-04-21T02:55:44.665Z,92.00
2019-04-21T03:00:55.505Z,97.75
2019-04-21T03:08:49.679Z,106.00
2019-04-21T03:13:59.360Z,99.50
2019-04-21T03:16:25.750Z,100.25
2019-04-21T03:21:42.202Z,108.00
2019-04-21T03:24:29.711Z,106.25
2019-04-21T03:29:29.518Z,105.75
2019-04-21T03:35:25.906Z,109.25
2019-04-21T03:37:16.743Z,106.75
2019-04-21T03:42:30.770Z,107.60
2019-04-21T03:44:59.979Z,107.00
2019-04-21T03:47:32.487Z,106.25
2019-04-21T03:50:11.414Z,109.25
2019-04-21T03:52:50.432Z,72.50
2019-04-21T04:00:58.278Z,117.75
2019-04-21T04:03:33.024Z,105.00
2019-04-21T04:16:26.104Z,117.50
2019-04-21T04:29:18.306Z,116.00
2019-04-21T04:31:42.769Z,120.50
2019-04-21T04:34:27.547Z,107.25
2019-04-21T04:37:07.442Z,110.50
2019-04-21T04:42:31.532Z,103.50
2019-04-21T04:47:34.984Z,103.50
2019-04-21T04:49:53.379Z,105.50
2019-04-21T04:55:17.160Z,103.00
2019-04-21T04:57:55.342Z,107.00
2019-04-21T05:00:25.864Z,106.75
2019-04-21T05:05:30.097Z,111.50
2019-04-21T05:11:01.463Z,110.25
2019-04-21T05:13:21.379Z,111.00
2019-04-21T05:15:51.273Z,115.00
2019-04-21T05:18:35.060Z,105.75
2019-04-21T05:21:12.459Z,113.25
2019-04-21T05:23:31.360Z,126.50
2019-04-21T05:25:58.422Z,117.50
2019-04-21T05:28:32.688Z,133.75
2019-04-21T05:31:18.250Z,131.50
2019-04-21T05:33:57.729Z,131.25
2019-04-21T05:36:30.874Z,137.00
2019-04-21T05:39:01.167Z,141.25
2019-04-21T05:41:29.085Z,143.75
2019-04-21T05:44:13.314Z,142.75
2019-04-21T05:46:59.418Z,136.75
2019-04-21T05:49:23.154Z,129.00
2019-04-21T05:51:55.701Z,128.75
2019-04-21T05:57:10.180Z,145.80
2019-04-21T05:59:49.078Z,150.25
2019-04-21T06:02:24.201Z,144.00
2019-04-21T06:07:34.832Z,143.00
2019-04-21T06:10:08.604Z,133.80
2019-04-21T06:12:49.777Z,133.50
2019-04-21T06:15:21.349Z,122.00
2019-04-21T06:18:02.780Z,127.25
2019-04-21T06:20:38.514Z,135.25
2019-04-21T06:23:03.077Z,130.00
2019-04-21T06:25:54.564Z,123.75
2019-04-21T06:28:20.689Z,128.00
2019-04-21T06:31:05.946Z,132.50
2019-04-21T06:33:46.005Z,130.50
2019-04-21T06:38:58.295Z,123.60
2019-04-21T06:41:21.528Z,119.50
2019-04-21T06:43:56.309Z,119.40
2019-04-21T06:46:33.424Z,126.75
2019-04-21T06:51:38.971Z,111.25
2019-04-21T06:54:30.627Z,110.00
2019-04-21T06:56:47.956Z,105.00
2019-04-21T06:59:20.785Z,101.50
2019-04-21T07:02:13.462Z,100.25
2019-04-21T07:04:40.873Z,97.83
2019-04-21T07:07:05.204Z,98.25
2019-04-21T07:09:53.088Z,97.80
2019-04-21T07:12:19.003Z,91.50
2019-04-21T07:14:58.983Z,89.20
2019-04-21T07:17:46.723Z,89.00
2019-04-21T07:22:44.659Z,86.75
2019-04-21T07:25:26.400Z,86.75
2019-04-21T07:27:53.788Z,87.75
2019-04-21T07:30:31.175Z,83.75
2019-04-21T07:33:20.699Z,83.25
2019-04-21T07:35:37.502Z,89.75
2019-04-21T07:38:19.587Z,85.80
2019-04-21T07:40:48.514Z,79.75
2019-04-21T07:43:21.934Z,84.50
2019-04-21T07:45:58.506Z,80.75
2019-04-21T07:48:37.537Z,78.75
2019-04-21T07:51:25.483Z,73.25
2019-04-21T07:54:05.641Z,74.80
2019-04-21T07:56:17.806Z,77.75
2019-04-21T07:59:02.273Z,76.00
2019-04-21T08:01:37.349Z,75.00
2019-04-21T08:04:38.259Z,73.75
2019-04-21T08:06:53.686Z,75.75
2019-04-21T08:09:29.446Z,69.00
2019-04-21T08:12:02.663Z,74.25
2019-04-21T08:14:43.533Z,73.67
2019-04-21T08:17:09.795Z,72.50
2019-04-21T08:19:46.168Z,69.20
2019-04-21T08:22:25.679Z,67.00
2019-04-21T08:25:05.714Z,63.50
2019-04-21T08:27:46.449Z,67.50
2019-04-21T08:30:12.865Z,66.00
2019-04-21T08:37:55.232Z,60.20
2019-04-21T08:40:36.655Z,55.80
2019-04-21T08:43:08.854Z,56.50
2019-04-21T08:45:51.245Z,56.33
2019-04-21T08:48:18.299Z,56.25
2019-04-21T08:51:08.282Z,58.50
2019-04-21T08:53:35.711Z,57.50
2019-04-21T08:56:10.532Z,54.60
2019-04-21T08:58:41.553Z,58.25
2019-04-21T09:01:23.902Z,54.60
2019-04-21T09:03:56.743Z,56.00
2019-04-21T09:09:05.287Z,51.50
2019-04-21T09:11:36.257Z,53.20
2019-04-21T09:14:13.857Z,54.00
2019-04-21T09:16:47.603Z,57.50
2019-04-21T09:19:38.536Z,53.50
2019-04-21T09:22:02.234Z,49.75
2019-04-21T09:24:33.345Z,49.80
2019-04-21T09:27:10.051Z,48.50
2019-04-21T09:29:36.656Z,47.75
2019-04-21T09:32:09.596Z,49.00
2019-04-21T09:34:43.744Z,50.25
2019-04-21T09:37:28.843Z,51.50
2019-04-21T09:39:55.154Z,50.25
2019-04-21T09:42:37.295Z,53.75
2019-04-21T09:45:06.174Z,53.25
2019-04-21T09:47:46.498Z,49.80
2019-04-21T09:50:15.135Z,51.00
2019-04-21T09:52:55.480Z,51.25
2019-04-21T09:55:31.499Z,50.50
2019-04-21T09:58:09.941Z,46.75
2019-04-21T10:00:47.653Z,45.40
2019-04-21T10:03:13.917Z,42.75
2019-04-21T10:05:47.489Z,44.00
2019-04-21T10:08:22.820Z,41.60
2019-04-21T10:10:56.967Z,44.75
2019-04-21T10:13:31.838Z,44.50
2019-04-21T10:16:05.799Z,44.50
2019-04-21T10:18:40.311Z,41.80
2019-04-21T10:21:15.456Z,33.25
2019-04-21T10:23:50.097Z,37.00
2019-04-21T10:26:24.360Z,36.75
2019-04-21T10:29:05.706Z,40.25
2019-04-21T10:31:34.650Z,41.40
2019-04-21T10:34:09.336Z,40.00
2019-04-21T10:36:43.193Z,34.75
2019-04-21T10:39:17.805Z,33.50
2019-04-21T10:41:57.353Z,39.50
2019-04-21T10:44:31.498Z,34.00
2019-04-21T10:47:06.788Z,37.00
2019-04-21T10:49:40.685Z,36.80
2019-04-21T10:52:15.240Z,30.50
2019-04-21T10:55:15.072Z,31.00
2019-04-21T10:57:24.496Z,29.00
2019-04-21T10:59:59.838Z,34.50
2019-04-21T11:02:34.791Z,35.40
2019-04-21T11:05:09.097Z,30.75
2019-04-21T11:07:57.601Z,23.75
2019-04-21T11:10:18.406Z,26.75
2019-04-21T11:12:52.690Z,29.50
2019-04-21T11:15:27.511Z,26.25
2019-04-21T11:18:01.795Z,28.75
2019-04-21T11:20:35.655Z,27.50
2019-04-21T11:23:10.191Z,27.00
2019-04-21T11:25:44.057Z,25.75
2019-04-21T11:28:18.644Z,25.00
2019-04-21T11:30:53.092Z,24.25
2019-04-21T11:33:27.190Z,24.00
2019-04-21T11:36:01.457Z,24.25
2019-04-21T11:38:51.328Z,26.25
2019-04-21T11:41:11.912Z,24.00
2019-04-21T11:43:45.771Z,28.60
2019-04-21T11:46:20.504Z,27.50
2019-04-21T11:48:54.701Z,25.75
2019-04-21T11:51:28.967Z,24.25
2019-04-21T11:54:02.874Z,27.60
2019-04-21T11:56:37.002Z,23.75
2019-04-21T11:59:11.978Z,27.40
2019-04-21T12:01:45.988Z,24.00
2019-04-21T12:04:19.702Z,25.75
2019-04-21T12:06:55.972Z,25.80
2019-04-21T12:09:30.171Z,28.25
2019-04-21T12:12:05.261Z,27.20
2019-04-21T12:14:39.698Z,25.75
2019-04-21T12:17:14.244Z,24.50
2019-04-21T12:19:48.563Z,24.00
2019-04-21T12:22:28.215Z,23.75
2019-04-21T12:24:57.817Z,26.60
2019-04-21T12:27:32.006Z,29.00
2019-04-21T12:30:06.846Z,26.75
2019-04-21T12:32:40.589Z,27.75
2019-04-21T12:35:15.652Z,25.00
2019-04-21T12:37:51.062Z,28.25
2019-04-21T12:40:26.092Z,27.00
2019-04-21T12:43:00.953Z,28.50
2019-04-21T12:45:35.947Z,21.40
2019-04-21T12:48:10.456Z,20.00
2019-04-21T12:50:45.717Z,22.25
2019-04-21T12:53:19.545Z,23.00
2019-04-21T12:55:53.818Z,25.50
2019-04-21T12:58:28.983Z,25.25
2019-04-21T13:01:03.008Z,23.80
2019-04-21T13:03:37.604Z,25.25
2019-04-21T13:06:11.770Z,22.25
2019-04-21T13:08:53.611Z,23.75
2019-04-21T13:11:21.432Z,23.75
2019-04-21T13:13:55.742Z,26.00
2019-04-21T13:16:29.601Z,26.50
2019-04-21T13:19:03.346Z,24.60
2019-04-21T13:21:38.130Z,23.25
2019-04-21T13:24:12.033Z,26.25
2019-04-21T13:26:52.380Z,22.25
2019-04-21T13:29:21.184Z,25.00
2019-04-21T13:31:56.175Z,24.75
2019-04-21T13:34:31.669Z,21.00
2019-04-21T13:37:05.782Z,23.25
2019-04-21T13:40:01.931Z,19.25
2019-04-21T13:42:24.075Z,20.75
2019-04-21T13:44:50.969Z,22.50
2019-04-21T13:47:25.047Z,22.25
2019-04-21T13:50:01.048Z,24.00
2019-04-21T13:52:34.545Z,24.00
2019-04-21T13:55:09.508Z,39.00
2019-04-21T13:57:44.369Z,106.25
2019-04-21T14:00:19.434Z,35.20
2019-04-21T14:02:54.561Z,28.60
2019-04-21T14:05:28.673Z,24.80
2019-04-21T14:08:03.150Z,21.00
2019-04-21T14:10:37.675Z,20.25
2019-04-21T14:13:12.148Z,20.20
2019-04-21T14:15:48.336Z,17.50
2019-04-21T14:18:22.553Z,62.00
2019-04-21T14:20:57.445Z,76.40
2019-04-21T14:23:38.072Z,25.75
2019-04-21T14:26:06.632Z,57.60
2019-04-21T14:28:41.051Z,41.75
2019-04-21T14:31:14.875Z,40.25
2019-04-21T14:33:49.941Z,25.80
2019-04-21T14:36:23.955Z,45.50
2019-04-21T14:38:58.731Z,36.00
2019-04-21T14:41:32.682Z,71.60
2019-04-21T14:44:06.925Z,54.40
2019-04-21T14:46:40.723Z,84.75
2019-04-21T14:49:15.199Z,25.50
2019-04-21T14:51:49.565Z,58.80
2019-04-21T14:54:24.701Z,27.75
2019-04-21T14:56:58.633Z,30.40
2019-04-21T14:59:33.273Z,24.00
2019-04-21T15:02:07.756Z,34.75
2019-04-21T15:04:41.793Z,22.75
2019-04-21T15:07:15.568Z,32.25
2019-04-21T15:10:01.163Z,21.50
2019-04-21T15:12:25.771Z,52.50
2019-04-21T15:15:00.164Z,43.50
2019-04-21T15:17:34.031Z,30.00
2019-04-21T15:20:11.165Z,18.80
2019-04-21T15:22:44.270Z,23.00
2019-04-21T15:25:18.410Z,18.00
2019-04-21T15:27:52.835Z,21.00
2019-04-21T15:30:26.879Z,22.25
2019-04-21T15:33:02.222Z,19.00
2019-04-21T15:35:37.329Z,18.50
2019-04-21T15:38:11.870Z,22.25
2019-04-21T15:40:52.155Z,20.20
2019-04-21T15:43:22.356Z,19.50
2019-04-21T15:45:57.101Z,19.50
2019-04-21T15:48:31.010Z,19.80
2019-04-21T15:51:05.659Z,19.25
2019-04-21T15:53:41.632Z,14.50
2019-04-21T15:56:17.325Z,15.25
2019-04-21T15:58:52.659Z,19.00
2019-04-21T16:01:26.652Z,18.75
2019-04-21T16:04:02.142Z,20.75
2019-04-21T16:06:37.229Z,18.60
2019-04-21T16:09:15.058Z,17.60
2019-04-21T16:11:46.652Z,17.00
2019-04-21T16:14:20.688Z,22.50
2019-04-21T16:16:54.635Z,20.00
2019-04-21T16:19:36.245Z,20.50
2019-04-21T16:22:10.818Z,19.00
2019-04-21T16:24:46.272Z,18.50
2019-04-21T16:27:21.305Z,20.00
2019-04-21T16:29:55.265Z,24.00
2019-04-21T16:32:30.155Z,21.20
2019-04-21T16:35:10.445Z,19.80
2019-04-21T16:37:41.607Z,19.00
2019-04-21T16:40:15.484Z,20.00
2019-04-21T16:42:50.089Z,23.00
2019-04-21T16:45:25.114Z,21.00
2019-04-21T16:47:59.147Z,20.20
2019-04-21T16:50:33.972Z,19.75
2019-04-21T16:53:08.230Z,23.00
2019-04-21T16:55:42.207Z,32.00
2019-04-21T16:58:20.640Z,25.25
2019-04-21T17:01:00.698Z,21.40
2019-04-21T17:03:28.307Z,23.00
2019-04-21T17:06:04.695Z,18.80
2019-04-21T17:08:38.747Z,17.25
2019-04-21T17:11:19.541Z,18.80
2019-04-21T17:13:50.006Z,21.50
2019-04-21T17:19:09.109Z,17.50
2019-04-21T17:21:34.746Z,17.25
2019-04-21T17:24:08.522Z,17.75
2019-04-21T17:26:44.734Z,14.00
2019-04-21T17:29:20.753Z,15.50
2019-04-21T17:31:55.305Z,17.00
2019-04-21T17:34:31.640Z,13.60
2019-04-21T17:37:05.526Z,14.00
2019-04-21T17:39:40.618Z,19.25
2019-04-21T17:42:26.419Z,13.25
2019-04-21T17:44:51.069Z,16.50
2019-04-21T17:47:34.198Z,19.50
2019-04-21T17:50:03.130Z,23.75
2019-04-21T17:52:42.860Z,20.00
2019-04-21T17:55:22.987Z,20.25
2019-04-21T17:58:09.290Z,18.40
2019-04-21T18:01:09.244Z,14.25
2019-04-21T18:03:35.308Z,14.00
2019-04-21T18:05:55.915Z,16.00
2019-04-21T18:08:38.705Z,14.25
2019-04-21T18:11:03.442Z,18.75
2019-04-21T18:13:26.925Z,17.50
2019-04-21T18:16:09.642Z,25.25
2019-04-21T18:18:36.832Z,25.00
2019-04-21T18:21:10.741Z,24.00
2019-04-21T18:23:52.846Z,29.40
2019-04-21T18:26:30.304Z,32.00
2019-04-21T18:28:58.571Z,29.75
2019-04-21T18:31:33.773Z,27.25
2019-04-21T18:34:11.085Z,30.25
2019-04-21T18:36:46.443Z,28.20
2019-04-21T18:39:34.187Z,30.75
2019-04-21T18:42:10.909Z,27.20
2019-04-21T18:45:11.060Z,24.50
2019-04-21T18:47:24.204Z,18.60
2019-04-21T18:49:46.010Z,23.00
2019-04-21T18:52:32.250Z,26.75
2019-04-21T18:55:09.548Z,24.50
2019-04-21T18:57:39.250Z,29.75
2019-04-21T19:00:15.346Z,27.40
2019-04-21T19:02:47.718Z,32.75
2019-04-21T19:05:21.216Z,31.75
2019-04-21T19:08:11.492Z,29.00
2019-04-21T19:10:50.727Z,34.75
2019-04-21T19:13:44.385Z,31.00
2019-04-21T19:16:22.830Z,39.00
2019-04-21T19:18:43.663Z,36.50
2019-04-21T19:21:06.169Z,33.25
2019-04-21T19:23:53.557Z,28.00
2019-04-21T19:29:03.512Z,28.50
2019-04-21T19:31:32.233Z,25.20
2019-04-21T19:33:59.851Z,25.25
2019-04-21T19:36:23.655Z,29.00
2019-04-21T19:39:06.840Z,30.60
2019-04-21T19:41:48.980Z,27.50
2019-04-21T19:44:32.340Z,25.50
2019-04-21T19:47:03.662Z,30.25
2019-04-21T19:49:45.250Z,31.50
2019-04-21T19:52:05.107Z,35.75
2019-04-21T19:54:36.314Z,30.60
2019-04-21T19:57:07.270Z,28.00
2019-04-21T19:59:47.678Z,28.25
2019-04-21T20:02:16.612Z,28.75
2019-04-21T20:04:59.000Z,36.00
2019-04-21T20:07:44.461Z,36.25
2019-04-21T20:10:23.967Z,38.75
2019-04-21T20:12:55.587Z,36.50
2019-04-21T20:15:37.395Z,40.50
2019-04-21T20:18:01.985Z,44.75
2019-04-21T20:20:24.864Z,57.60
2019-04-21T20:22:59.399Z,56.25
2019-04-21T20:25:41.808Z,61.00
2019-04-21T20:28:16.079Z,56.50
2019-04-21T20:31:02.434Z,53.60
2019-04-21T20:36:16.855Z,52.75
2019-04-21T20:38:44.472Z,43.25
2019-04-21T20:41:22.447Z,46.25
2019-04-21T20:44:00.500Z,38.50
2019-04-21T20:46:36.694Z,48.00
2019-04-21T20:49:02.764Z,52.20
2019-04-21T20:51:41.978Z,49.00
2019-04-21T20:54:23.117Z,53.75
2019-04-21T20:56:57.830Z,55.75
2019-04-21T20:59:29.302Z,56.75
2019-04-21T21:02:05.685Z,56.75
2019-04-21T21:04:32.661Z,65.00
2019-04-21T21:07:34.610Z,57.00
2019-04-21T21:10:00.467Z,55.50
2019-04-21T21:12:43.093Z,62.25
2019-04-21T21:15:02.582Z,61.20
2019-04-21T21:17:53.665Z,58.00
2019-04-21T21:20:24.830Z,63.75
2019-04-21T21:22:56.176Z,61.50
2019-04-21T21:25:40.243Z,65.20
2019-04-21T21:28:06.748Z,67.80
2019-04-21T21:30:37.521Z,71.20
2019-04-21T21:33:27.553Z,68.50
2019-04-21T21:35:56.810Z,64.75
2019-04-21T21:38:31.436Z,64.25
2019-04-21T21:40:59.598Z,71.50
2019-04-21T21:43:27.506Z,67.25
2019-04-21T21:46:11.170Z,73.25
2019-04-21T21:48:51.385Z,70.00
2019-04-21T21:51:22.774Z,74.60
2019-04-21T21:53:48.822Z,76.50
2019-04-21T21:56:24.618Z,74.75
2019-04-21T21:59:01.309Z,76.50
2019-04-21T22:01:38.845Z,84.75
2019-04-21T22:04:17.020Z,90.75
2019-04-21T22:06:50.656Z,92.50
2019-04-21T22:09:20.114Z,89.50
2019-04-21T22:11:57.915Z,86.50
2019-04-21T22:14:36.935Z,84.25
2019-04-21T22:17:24.689Z,87.00
2019-04-21T22:20:05.259Z,82.25
2019-04-21T22:22:34.155Z,82.75
2019-04-21T22:25:02.674Z,81.25
2019-04-21T22:27:27.380Z,82.75
2019-04-21T22:30:03.934Z,82.00
2019-04-21T22:32:38.245Z,80.50
2019-04-21T22:35:23.534Z,84.00
2019-04-21T22:38:02.034Z,83.60
2019-04-21T22:40:35.847Z,82.75
2019-04-21T22:43:11.927Z,80.00
2019-04-21T22:45:35.580Z,82.25
2019-04-21T22:48:14.333Z,81.60
2019-04-21T22:50:44.866Z,81.25
2019-04-21T22:53:19.767Z,82.00
2019-04-21T22:56:00.093Z,82.50
2019-04-21T22:58:33.967Z,78.25
2019-04-21T23:01:06.015Z,81.00
2019-04-21T23:03:48.997Z,77.00
2019-04-21T23:06:21.619Z,80.40
2019-04-21T23:08:51.274Z,76.00
2019-04-21T23:11:28.059Z,77.25
2019-04-21T23:14:05.035Z,82.00
2019-04-21T23:16:39.670Z,77.25
2019-04-21T23:19:30.816Z,80.00
2019-04-21T23:22:04.141Z,77.00
2019-04-21T23:24:45.685Z,76.25
2019-04-21T23:27:11.774Z,77.20
2019-04-21T23:30:03.322Z,77.00
2019-04-21T23:32:23.581Z,81.25
2019-04-21T23:34:45.590Z,74.50
2019-04-21T23:37:22.152Z,75.25
2019-04-21T23:40:01.017Z,74.75
2019-04-21T23:42:36.189Z,76.75
2019-04-21T23:45:08.723Z,70.00
2019-04-21T23:47:57.873Z,73.80
2019-04-21T23:50:30.696Z,73.75
2019-04-21T23:52:55.434Z,72.60
2019-04-21T23:55:29.454Z,78.50
2019-04-21T23:58:09.437Z,75.75
